createdAt,value
2022-08-26T00:02:03.691Z,9.77
2022-08-26T00:04:50.763Z,6.53
2022-08-26T00:07:37.845Z,10.95
2022-08-26T00:10:25.871Z,7.93
2022-08-26T00:13:13.627Z,7.63
2022-08-26T00:16:01.083Z,11.07
2022-08-26T00:18:50.112Z,7.35
2022-08-26T00:21:37.611Z,7.82
2022-08-26T00:24:25.800Z,11.57
2022-08-26T00:27:12.790Z,8.68
2022-08-26T00:30:06.670Z,7.72
2022-08-26T00:32:54.387Z,7.50
2022-08-26T00:35:45.242Z,11.88
2022-08-26T00:38:32.671Z,7.95
2022-08-26T00:41:20.010Z,11.35
2022-08-26T00:44:08.301Z,11.63
2022-08-26T00:47:01.097Z,10.55
2022-08-26T00:49:49.253Z,6.95
2022-08-26T00:52:37.914Z,9.27
2022-08-26T00:55:37.977Z,10.40
2022-08-26T00:58:27.977Z,13.27
2022-08-26T01:01:15.807Z,12.52
2022-08-26T01:04:03.105Z,10.95
2022-08-26T01:06:53.061Z,11.95
2022-08-26T01:09:40.025Z,11.18
2022-08-26T01:12:31.725Z,9.45
2022-08-26T01:15:32.913Z,8.30
2022-08-26T01:18:20.533Z,8.63
2022-08-26T01:21:23.158Z,10.27
2022-08-26T01:24:12.047Z,12.25
2022-08-26T01:27:06.811Z,10.15
2022-08-26T01:29:54.441Z,9.27
2022-08-26T01:32:42.656Z,14.75
2022-08-26T01:35:30.511Z,11.93
2022-08-26T01:38:18.340Z,9.25
2022-08-26T01:41:16.030Z,13.90
2022-08-26T01:44:09.907Z,9.13
2022-08-26T01:46:58.752Z,6.50
2022-08-26T01:49:50.876Z,10.57
2022-08-26T01:52:44.318Z,9.55
2022-08-26T01:55:33.098Z,14.05
2022-08-26T01:58:32.148Z,11.57
2022-08-26T02:01:19.899Z,9.57
2022-08-26T02:04:20.845Z,10.18
2022-08-26T02:07:09.609Z,7.40
2022-08-26T02:09:56.872Z,7.72
2022-08-26T02:12:44.031Z,9.10
2022-08-26T02:15:33.309Z,9.85
2022-08-26T02:18:22.511Z,10.00
2022-08-26T02:21:10.906Z,7.97
2022-08-26T02:24:11.456Z,11.57
2022-08-26T02:26:59.240Z,7.10
2022-08-26T02:29:51.617Z,7.85
2022-08-26T02:32:40.232Z,8.25
2022-08-26T02:35:28.345Z,9.85
2022-08-26T02:38:17.063Z,7.85
2022-08-26T02:41:04.595Z,11.45
2022-08-26T02:43:55.864Z,10.73
2022-08-26T02:46:46.881Z,8.05
2022-08-26T02:49:34.292Z,7.40
2022-08-26T02:52:21.643Z,12.10
2022-08-26T02:55:08.845Z,12.18
2022-08-26T02:57:55.901Z,9.18
2022-08-26T03:00:52.622Z,9.70
2022-08-26T03:03:40.121Z,13.73
2022-08-26T03:06:27.616Z,7.25
2022-08-26T03:09:18.465Z,11.40
2022-08-26T03:12:06.244Z,6.38
2022-08-26T03:14:54.600Z,8.60
2022-08-26T03:17:41.918Z,11.32
2022-08-26T03:20:30.746Z,8.98
2022-08-26T03:23:18.586Z,10.20
2022-08-26T03:26:06.843Z,12.98
2022-08-26T03:29:12.807Z,10.18
2022-08-26T03:32:01.465Z,8.23
2022-08-26T03:34:48.516Z,10.10
2022-08-26T03:37:35.488Z,9.88
2022-08-26T03:40:22.905Z,10.27
2022-08-26T03:43:11.395Z,8.85
2022-08-26T03:45:58.411Z,10.68
2022-08-26T03:48:45.777Z,10.98
2022-08-26T03:51:35.671Z,10.38
2022-08-26T03:54:26.881Z,12.93
2022-08-26T03:57:13.850Z,15.40
2022-08-26T04:00:07.716Z,9.30
2022-08-26T04:02:54.879Z,10.82
2022-08-26T04:05:41.868Z,8.15
2022-08-26T04:08:28.860Z,11.93
2022-08-26T04:11:20.668Z,14.20
2022-08-26T04:14:17.675Z,14.65
2022-08-26T04:17:07.168Z,10.57
2022-08-26T04:19:54.586Z,10.32
2022-08-26T04:22:42.306Z,12.70
2022-08-26T04:25:29.250Z,10.75
2022-08-26T04:28:16.267Z,13.57
2022-08-26T04:31:03.687Z,15.30
2022-08-26T04:33:50.781Z,12.85
2022-08-26T04:36:38.017Z,12.23
2022-08-26T04:39:25.781Z,13.90
2022-08-26T04:42:17.946Z,18.00
2022-08-26T04:45:09.999Z,20.75
2022-08-26T04:47:57.554Z,19.60
2022-08-26T04:50:44.486Z,20.98
2022-08-26T04:53:37.511Z,17.23
2022-08-26T04:56:30.235Z,18.88
2022-08-26T04:59:18.218Z,22.20
2022-08-26T05:02:05.508Z,22.95
2022-08-26T05:04:52.936Z,23.90
2022-08-26T05:07:40.929Z,19.25
2022-08-26T05:10:28.930Z,26.27
2022-08-26T05:13:18.782Z,28.90
2022-08-26T05:16:11.638Z,20.40
2022-08-26T05:18:58.852Z,22.35
2022-08-26T05:21:47.176Z,21.15
2022-08-26T05:24:34.321Z,21.50
2022-08-26T05:27:21.267Z,21.52
2022-08-26T05:30:08.975Z,17.73
2022-08-26T05:32:56.591Z,21.92
2022-08-26T05:35:44.946Z,21.20
2022-08-26T05:38:31.934Z,19.98
2022-08-26T05:41:36.122Z,23.65
2022-08-26T05:44:24.412Z,20.80
2022-08-26T05:47:11.869Z,27.33
2022-08-26T05:50:00.462Z,19.45
2022-08-26T05:52:52.059Z,20.17
2022-08-26T05:55:50.543Z,19.92
2022-08-26T05:58:39.028Z,22.85
2022-08-26T06:01:27.940Z,23.60
2022-08-26T06:04:15.284Z,18.48
2022-08-26T06:07:02.387Z,20.95
2022-08-26T06:09:52.379Z,25.10
2022-08-26T06:12:39.318Z,20.23
2022-08-26T06:15:26.322Z,19.20
2022-08-26T06:18:15.007Z,21.77
2022-08-26T06:21:30.335Z,24.58
2022-08-26T06:24:36.805Z,19.75
2022-08-26T06:27:23.731Z,23.65
2022-08-26T06:30:11.269Z,23.00
2022-08-26T06:33:00.927Z,20.73
2022-08-26T06:35:50.210Z,24.92
2022-08-26T06:38:37.735Z,21.63
2022-08-26T06:41:25.814Z,24.73
2022-08-26T06:44:14.632Z,26.70
2022-08-26T06:47:01.642Z,21.30
2022-08-26T06:49:48.667Z,23.52
2022-08-26T06:52:40.661Z,22.85
2022-08-26T06:55:27.882Z,27.05
2022-08-26T06:58:14.947Z,22.33
2022-08-26T07:01:11.357Z,22.17
2022-08-26T07:04:03.795Z,24.40
2022-08-26T07:06:55.499Z,23.33
2022-08-26T07:09:42.895Z,19.50
2022-08-26T07:12:29.829Z,23.60
2022-08-26T07:15:17.565Z,24.73
2022-08-26T07:18:04.939Z,22.17
2022-08-26T07:20:51.889Z,23.77
2022-08-26T07:23:39.716Z,20.60
2022-08-26T07:26:29.733Z,20.42
2022-08-26T07:29:17.292Z,23.63
2022-08-26T07:32:04.835Z,22.48
2022-08-26T07:34:52.233Z,20.27
2022-08-26T07:37:39.417Z,23.48
2022-08-26T07:40:26.491Z,24.33
2022-08-26T07:43:13.789Z,22.02
2022-08-26T07:46:02.927Z,19.17
2022-08-26T07:48:50.911Z,22.15
2022-08-26T07:51:39.098Z,15.13
2022-08-26T07:54:27.080Z,16.50
2022-08-26T07:57:14.209Z,15.10
2022-08-26T08:00:02.086Z,19.33
2022-08-26T08:02:49.231Z,18.60
2022-08-26T08:05:37.596Z,16.38
2022-08-26T08:08:29.201Z,16.73
2022-08-26T08:11:16.326Z,19.08
2022-08-26T08:14:04.538Z,15.48
2022-08-26T08:16:55.871Z,16.23
2022-08-26T08:19:42.977Z,13.13
2022-08-26T08:22:30.324Z,16.70
2022-08-26T08:25:17.760Z,13.45
2022-08-26T08:28:04.764Z,15.07
2022-08-26T08:30:51.788Z,12.82
2022-08-26T08:33:38.736Z,13.85
2022-08-26T08:36:25.687Z,12.02
2022-08-26T08:39:19.199Z,19.90
2022-08-26T08:42:30.550Z,15.32
2022-08-26T08:45:49.758Z,89.82
2022-08-26T08:48:41.605Z,32.92
2022-08-26T08:51:35.637Z,23.08
2022-08-26T08:54:23.169Z,16.95
2022-08-26T08:57:28.051Z,17.80
2022-08-26T09:00:18.907Z,15.35
2022-08-26T09:03:29.200Z,13.80
2022-08-26T09:06:20.374Z,13.40
2022-08-26T09:09:08.168Z,13.68
2022-08-26T09:15:04.033Z,11.00
2022-08-26T09:18:39.742Z,15.68
2022-08-26T09:21:27.492Z,13.90
2022-08-26T09:24:14.476Z,12.88
2022-08-26T09:27:01.449Z,10.65
2022-08-26T09:29:50.270Z,13.02
2022-08-26T09:32:37.771Z,15.13
2022-08-26T09:35:35.890Z,14.45
2022-08-26T09:38:32.837Z,14.13
2022-08-26T09:41:24.949Z,14.30
2022-08-26T09:44:16.196Z,14.55
2022-08-26T09:47:19.533Z,12.68
2022-08-26T09:50:31.911Z,17.45
2022-08-26T09:53:28.680Z,13.80
2022-08-26T09:56:24.042Z,15.10
2022-08-26T09:59:12.229Z,13.27
2022-08-26T10:02:16.701Z,12.82
2022-08-26T10:05:10.473Z,13.63
2022-08-26T10:07:59.582Z,14.45
2022-08-26T10:10:47.335Z,15.15
2022-08-26T10:13:46.578Z,16.38
2022-08-26T10:16:45.599Z,10.90
2022-08-26T10:19:56.676Z,13.10
2022-08-26T10:23:06.730Z,16.27
2022-08-26T10:26:11.314Z,11.75
2022-08-26T10:29:12.281Z,14.45
2022-08-26T10:32:03.609Z,12.88
2022-08-26T10:34:51.489Z,9.45
2022-08-26T10:37:45.670Z,16.38
2022-08-26T10:40:44.846Z,17.00
2022-08-26T10:43:41.349Z,15.75
2022-08-26T10:46:45.512Z,13.07
2022-08-26T10:49:33.861Z,12.82
2022-08-26T10:52:32.154Z,12.85
2022-08-26T10:55:48.748Z,13.73
2022-08-26T10:58:42.255Z,19.08
2022-08-26T11:01:47.190Z,12.02
2022-08-26T11:04:56.052Z,14.80
2022-08-26T11:07:45.901Z,18.17
2022-08-26T11:10:58.865Z,12.32
2022-08-26T11:14:00.545Z,15.65
2022-08-26T11:16:53.338Z,15.05
2022-08-26T11:19:59.417Z,12.60
2022-08-26T11:22:48.226Z,20.42
2022-08-26T11:25:58.898Z,12.15
2022-08-26T11:28:49.791Z,10.13
2022-08-26T11:31:54.507Z,12.70
2022-08-26T11:34:56.360Z,19.83
2022-08-26T11:38:04.327Z,13.95
2022-08-26T11:41:13.171Z,17.52
2022-08-26T11:44:04.106Z,8.07
2022-08-26T11:46:59.995Z,12.82
2022-08-26T11:49:46.914Z,12.10
2022-08-26T11:52:36.986Z,15.23
2022-08-26T11:55:24.277Z,15.50
2022-08-26T11:58:12.779Z,12.13
2022-08-26T12:01:05.234Z,11.80
2022-08-26T12:03:58.737Z,15.00
2022-08-26T12:06:49.753Z,12.13
2022-08-26T12:09:52.464Z,13.65
2022-08-26T12:12:40.202Z,14.18
2022-08-26T12:15:30.137Z,11.55
2022-08-26T12:18:20.599Z,14.02
2022-08-26T12:21:22.689Z,13.93
2022-08-26T12:24:18.607Z,16.08
2022-08-26T12:27:53.708Z,19.48
2022-08-26T12:30:41.136Z,11.50
2022-08-26T12:33:30.191Z,11.50
2022-08-26T12:36:24.652Z,17.75
2022-08-26T12:39:25.440Z,14.90
2022-08-26T12:42:12.344Z,12.50
2022-08-26T12:45:03.349Z,13.40
2022-08-26T12:47:55.816Z,14.65
2022-08-26T12:50:51.380Z,10.98
2022-08-26T12:53:43.399Z,13.73
2022-08-26T12:56:36.234Z,13.75
2022-08-26T12:59:26.066Z,18.92
2022-08-26T13:02:37.590Z,15.73
2022-08-26T13:05:28.580Z,13.45
2022-08-26T13:08:27.382Z,18.45
2022-08-26T13:11:20.352Z,11.85
2022-08-26T13:14:11.008Z,11.85
2022-08-26T13:16:58.262Z,10.85
2022-08-26T13:19:45.413Z,10.13
2022-08-26T13:22:32.546Z,12.90
2022-08-26T13:25:19.824Z,11.55
2022-08-26T13:28:06.903Z,16.73
2022-08-26T13:30:54.006Z,13.23
2022-08-26T13:33:42.916Z,12.38
2022-08-26T13:36:30.389Z,10.60
2022-08-26T13:39:18.049Z,15.68
2022-08-26T13:42:05.290Z,15.02
2022-08-26T13:44:57.803Z,13.93
2022-08-26T13:47:44.823Z,12.50
2022-08-26T13:50:33.761Z,11.98
2022-08-26T13:53:20.948Z,12.38
2022-08-26T13:56:10.871Z,11.98
2022-08-26T13:58:59.694Z,10.68
2022-08-26T14:01:46.812Z,11.68
2022-08-26T14:04:33.971Z,15.95
2022-08-26T14:07:21.328Z,13.75
2022-08-26T14:10:09.078Z,13.57
2022-08-26T14:12:56.527Z,13.60
2022-08-26T14:36:31.307Z,18.00
2022-08-26T14:39:18.335Z,20.80
2022-08-26T14:42:06.377Z,15.57
2022-08-26T14:44:57.060Z,15.32
2022-08-26T14:47:48.376Z,18.23
2022-08-26T14:50:35.471Z,18.20
2022-08-26T14:53:41.271Z,24.02
2022-08-26T14:56:30.352Z,19.15
2022-08-26T14:59:26.761Z,17.13
2022-08-26T15:02:27.700Z,18.73
2022-08-26T15:05:20.739Z,19.13
2022-08-26T15:08:10.807Z,19.08
2022-08-26T15:10:58.068Z,15.07
2022-08-26T15:13:45.826Z,17.58
2022-08-26T15:16:33.488Z,10.00
2022-08-26T15:19:21.637Z,6.07
2022-08-26T15:22:08.674Z,6.88
2022-08-26T15:24:57.459Z,10.15
2022-08-26T15:27:44.584Z,9.40
2022-08-26T15:30:31.968Z,8.38
2022-08-26T15:33:18.953Z,9.70
2022-08-26T15:36:07.782Z,10.15
2022-08-26T15:38:55.239Z,11.52
2022-08-26T15:41:42.399Z,6.57
2022-08-26T15:44:29.771Z,9.32
2022-08-26T15:47:16.757Z,8.55
2022-08-26T15:50:06.985Z,10.77
2022-08-26T15:52:53.968Z,12.27
2022-08-26T15:55:41.183Z,14.18
2022-08-26T15:58:29.461Z,19.40
2022-08-26T16:01:24.390Z,19.02
2022-08-26T16:04:15.079Z,18.00
2022-08-26T16:07:02.586Z,16.95
2022-08-26T16:09:54.110Z,16.08
2022-08-26T16:12:42.138Z,9.27
2022-08-26T16:15:29.152Z,9.13
2022-08-26T16:18:16.474Z,9.65
2022-08-26T16:21:13.218Z,8.63
2022-08-26T16:24:01.140Z,6.22
2022-08-26T16:26:49.151Z,10.20
2022-08-26T16:29:37.980Z,16.65
2022-08-26T16:32:28.245Z,17.55
2022-08-26T16:35:17.670Z,20.98
2022-08-26T16:38:05.169Z,20.35
2022-08-26T16:40:52.162Z,17.88
2022-08-26T16:43:39.123Z,21.27
2022-08-26T16:46:27.144Z,16.52
2022-08-26T16:49:14.237Z,19.42
2022-08-26T16:52:01.244Z,20.90
2022-08-26T16:54:48.241Z,23.67
2022-08-26T16:57:40.090Z,22.73
2022-08-26T17:00:30.918Z,26.90
2022-08-26T17:03:17.863Z,25.73
2022-08-26T17:06:05.015Z,25.70
2022-08-26T17:08:52.441Z,26.85
2022-08-26T17:11:39.535Z,20.45
2022-08-26T17:14:26.550Z,25.67
2022-08-26T17:17:13.703Z,23.55
2022-08-26T17:20:05.450Z,27.65
2022-08-26T17:22:55.003Z,24.10
2022-08-26T17:25:42.372Z,25.23
2022-08-26T17:28:29.633Z,23.63
2022-08-26T17:31:16.678Z,31.80
2022-08-26T17:34:03.879Z,26.33
2022-08-26T17:36:50.920Z,27.58
2022-08-26T17:39:42.440Z,25.48
2022-08-26T17:42:31.368Z,23.70
2022-08-26T17:48:06.156Z,22.15
2022-08-26T17:50:53.645Z,32.67
2022-08-26T17:53:41.841Z,24.33
2022-08-26T17:56:29.912Z,26.50
2022-08-26T17:59:17.114Z,24.23
2022-08-26T18:02:05.284Z,23.35
2022-08-26T18:04:52.198Z,22.80
2022-08-26T18:07:44.109Z,25.30
2022-08-26T18:10:31.339Z,28.23
2022-08-26T18:13:18.853Z,26.90
2022-08-26T18:16:06.769Z,25.60
2022-08-26T18:18:54.385Z,23.48
2022-08-26T18:21:41.474Z,26.48
2022-08-26T18:24:32.188Z,25.83
2022-08-26T18:27:19.154Z,23.17
2022-08-26T18:30:13.395Z,25.13
2022-08-26T18:33:03.222Z,27.40
2022-08-26T18:35:50.198Z,20.67
2022-08-26T18:38:37.148Z,22.90
2022-08-26T18:41:28.634Z,29.35
2022-08-26T18:44:17.775Z,23.17
2022-08-26T18:47:05.044Z,19.33
2022-08-26T18:49:52.011Z,23.75
2022-08-26T18:52:40.266Z,28.40
2022-08-26T18:55:27.182Z,26.45
2022-08-26T18:58:15.953Z,33.20
2022-08-26T19:01:03.015Z,27.33
2022-08-26T19:03:50.345Z,27.67
2022-08-26T19:06:39.356Z,24.75
2022-08-26T19:09:26.432Z,26.83
2022-08-26T19:12:14.932Z,22.70
2022-08-26T19:15:03.485Z,23.33
2022-08-26T19:17:50.547Z,27.15
2022-08-26T19:20:46.472Z,22.40
2022-08-26T19:23:34.217Z,29.40
2022-08-26T19:26:21.398Z,34.47
2022-08-26T19:29:08.987Z,26.38
2022-08-26T19:31:56.483Z,21.70
2022-08-26T19:34:44.448Z,27.92
2022-08-26T19:37:31.387Z,25.83
2022-08-26T19:40:18.436Z,26.10
2022-08-26T19:43:06.776Z,25.85
2022-08-26T19:45:53.832Z,22.80
2022-08-26T19:48:43.936Z,22.77
2022-08-26T19:51:33.970Z,28.83
2022-08-26T19:54:22.623Z,28.92
2022-08-26T19:57:09.578Z,24.35
2022-08-26T19:59:56.552Z,25.80
2022-08-26T20:02:44.398Z,39.13
2022-08-26T20:05:31.392Z,26.60
2022-08-26T20:08:22.609Z,36.10
2022-08-26T20:11:16.075Z,30.00
2022-08-26T20:14:03.298Z,25.77
2022-08-26T20:16:50.326Z,28.00
2022-08-26T20:20:03.994Z,33.15
2022-08-26T20:22:51.023Z,32.85
2022-08-26T20:25:38.521Z,27.90
2022-08-26T20:28:25.527Z,30.58
2022-08-26T20:31:12.652Z,29.90
2022-08-26T20:34:00.857Z,29.10
2022-08-26T20:36:49.617Z,24.52
2022-08-26T20:39:36.810Z,23.83
2022-08-26T20:42:23.838Z,31.80
2022-08-26T20:45:11.141Z,23.88
2022-08-26T20:47:58.188Z,28.90
2022-08-26T20:50:45.942Z,27.63
2022-08-26T20:53:33.707Z,30.80
2022-08-26T20:56:24.104Z,27.40
2022-08-26T20:59:11.420Z,32.33
2022-08-26T21:01:58.380Z,26.00
2022-08-26T21:04:45.432Z,25.38
2022-08-26T21:07:32.531Z,25.23
2022-08-26T21:10:19.554Z,25.77
2022-08-26T21:13:07.674Z,33.10
2022-08-26T21:15:57.219Z,25.83
2022-08-26T21:18:44.197Z,29.13
2022-08-26T21:21:31.292Z,24.00
2022-08-26T21:24:18.523Z,26.48
2022-08-26T21:27:05.610Z,18.95
2022-08-26T21:29:52.580Z,28.77
2022-08-26T21:32:39.603Z,24.02
2022-08-26T21:35:26.565Z,27.85
2022-08-26T21:38:13.575Z,28.27
2022-08-26T21:41:03.375Z,25.70
2022-08-26T21:43:54.583Z,20.58
2022-08-26T21:46:42.610Z,26.52
2022-08-26T21:49:29.594Z,30.77
2022-08-26T21:52:17.283Z,23.70
2022-08-26T21:55:09.030Z,26.85
2022-08-26T21:57:56.291Z,19.55
2022-08-26T22:00:51.154Z,22.42
2022-08-26T22:03:47.042Z,23.27
2022-08-26T22:06:40.917Z,19.20
2022-08-26T22:09:30.890Z,22.95
2022-08-26T22:12:18.358Z,29.10
2022-08-26T22:15:06.166Z,24.58
2022-08-26T22:17:53.186Z,24.13
2022-08-26T22:20:40.485Z,21.77
2022-08-26T22:23:28.137Z,17.90
2022-08-26T22:26:25.326Z,24.30
2022-08-26T22:29:12.970Z,18.80
2022-08-26T22:32:00.961Z,19.38
2022-08-26T22:34:48.509Z,18.58
2022-08-26T22:37:35.587Z,18.65
2022-08-26T22:40:22.813Z,15.15
2022-08-26T22:43:09.971Z,12.88
2022-08-26T22:45:57.164Z,17.02
2022-08-26T22:48:44.343Z,17.75
2022-08-26T22:51:31.880Z,19.98
2022-08-26T22:54:19.263Z,14.93
2022-08-26T22:57:06.863Z,14.45
2022-08-26T22:59:53.887Z,13.88
2022-08-26T23:02:41.794Z,13.77
2022-08-26T23:05:29.515Z,20.50
2022-08-26T23:08:16.752Z,17.77
2022-08-26T23:11:10.612Z,19.33
2022-08-26T23:13:57.595Z,17.98
2022-08-26T23:16:45.872Z,19.10
2022-08-26T23:19:32.914Z,17.50
2022-08-26T23:22:19.948Z,20.55
2022-08-26T23:25:10.034Z,24.17
2022-08-26T23:27:57.069Z,27.17
2022-08-26T23:30:44.064Z,30.80
2022-08-26T23:33:50.995Z,31.48
2022-08-26T23:36:38.156Z,29.02
2022-08-26T23:39:25.812Z,37.45
2022-08-26T23:42:13.528Z,34.40
2022-08-26T23:45:01.064Z,33.60
2022-08-26T23:47:50.485Z,38.83
2022-08-26T23:50:56.461Z,39.30
2022-08-26T23:53:43.531Z,49.53
2022-08-26T23:56:30.511Z,39.75
2022-08-26T23:59:17.601Z,37.35
